Weather at Steinbach (South) Airport

Public forecast

Using degrees Celsius for public forecast. Weather courtesy of forecast.io.

Closest aviation weather report (METAR) to Steinbach (South) Airport

Closest report is Winnipeg / James Armstrong Richardson International Airport, 32.6 nm (60.5 km) NW. Retrieved 2021/01/20 10:25 UTC (0 seconds ago):

CYWG 201025Z 18022G29KT 15SM DRSN FEW005 OVC120 M08/M10 A2937 RMK SC1AC7 PRESFR SLP966

Closest aviation forecast (TAF) to Steinbach (South) Airport

Closest forecast is Winnipeg / James Armstrong Richardson International Airport, 32.6 nm (60.5 km) NW. Retrieved 2021/01/20 06:48 UTC (3 hours ago):

TAF CYWG 200546Z 2006/2106 18022G32KT P6SM SCT005 BKN060 TEMPO 2006/2011 2SM -SN BR OVC004 PROB30 2006/2011 3/4SM -SN BR VV003 FM201100 20018KT 3SM -SN BKN030 TEMPO 2011/2016 3/4SM -SHSN BLSN VV008 BECMG 2013/2015 25018G28KT FM201600 25020G30KT P6SM BKN015 TEMPO 2016/2024 2SM -SHRASN OVC008 BECMG 2016/2018 29030G40KT FM210000 28020G30KT P6SM FEW008 BKN030 RMK NXT FCST BY 201200Z